createdAt,value
2023-04-06T00:00:04.787Z,2.50
2023-04-06T00:01:04.581Z,2.40
2023-04-06T00:02:04.629Z,2.40
2023-04-06T00:03:04.761Z,2.40
2023-04-06T00:04:02.698Z,2.30
2023-04-06T00:05:02.738Z,2.30
2023-04-06T00:06:04.472Z,2.30
2023-04-06T00:07:04.421Z,2.20
2023-04-06T00:08:04.471Z,2.20
2023-04-06T00:09:04.476Z,2.20
2023-04-06T00:10:04.641Z,2.20
2023-04-06T00:11:04.617Z,2.10
2023-04-06T00:12:04.641Z,2.10
2023-04-06T00:13:04.619Z,2.10
2023-04-06T00:14:04.619Z,2.10
2023-04-06T00:15:04.626Z,2.00
2023-04-06T00:16:02.644Z,2.00
2023-04-06T00:17:02.762Z,2.00
2023-04-06T00:18:02.735Z,1.90
2023-04-06T00:19:02.770Z,1.90
2023-04-06T00:20:02.716Z,1.90
2023-04-06T00:21:02.807Z,1.90
2023-04-06T00:22:02.889Z,1.80
2023-04-06T00:23:02.809Z,1.80
2023-04-06T00:24:02.912Z,1.80
2023-04-06T00:25:02.910Z,1.70
2023-04-06T00:26:02.874Z,1.70
2023-04-06T00:27:04.433Z,1.70
2023-04-06T00:28:04.488Z,1.70
2023-04-06T00:29:04.436Z,1.60
2023-04-06T00:30:04.525Z,1.60
2023-04-06T00:31:04.651Z,1.60
2023-04-06T00:32:04.704Z,1.60
2023-04-06T00:33:04.702Z,1.60
2023-04-06T00:34:04.657Z,1.50
2023-04-06T00:35:04.506Z,1.50
2023-04-06T00:36:04.682Z,1.50
2023-04-06T00:37:04.680Z,1.50
2023-04-06T00:38:04.649Z,1.50
2023-04-06T00:39:04.672Z,1.50
2023-04-06T00:40:04.700Z,1.50
2023-04-06T00:41:04.662Z,1.50
2023-04-06T00:42:02.658Z,1.50
2023-04-06T00:43:02.704Z,1.50
2023-04-06T00:44:02.852Z,1.50
2023-04-06T00:45:02.845Z,1.40
2023-04-06T00:46:02.808Z,1.40
2023-04-06T00:47:02.838Z,1.40
2023-04-06T00:48:02.773Z,1.40
2023-04-06T00:49:02.866Z,1.40
2023-04-06T00:50:02.823Z,1.40
2023-04-06T00:51:02.892Z,1.40
2023-04-06T00:52:04.665Z,1.40
2023-04-06T00:53:04.705Z,1.40
2023-04-06T00:54:04.673Z,1.40
2023-04-06T00:55:04.707Z,1.40
2023-04-06T00:56:04.713Z,1.30
2023-04-06T00:57:04.705Z,1.30
2023-04-06T00:58:04.695Z,1.30
2023-04-06T00:59:04.749Z,1.30
2023-04-06T01:00:04.784Z,1.30
2023-04-06T01:01:02.726Z,1.30
2023-04-06T01:02:02.621Z,1.30
2023-04-06T01:03:02.795Z,1.30
2023-04-06T01:04:02.885Z,1.30
2023-04-06T01:05:04.492Z,1.30
2023-04-06T01:06:04.532Z,1.30
2023-04-06T01:07:04.508Z,1.30
2023-04-06T01:08:04.542Z,1.30
2023-04-06T01:09:04.692Z,1.30
2023-04-06T01:10:04.543Z,1.30
2023-04-06T01:11:04.679Z,1.30
2023-04-06T01:12:04.722Z,1.30
2023-04-06T01:13:04.687Z,1.30
2023-04-06T01:14:04.691Z,1.30
2023-04-06T01:15:04.725Z,1.30
2023-04-06T01:16:04.724Z,1.30
2023-04-06T01:17:04.708Z,1.30
2023-04-06T01:18:04.743Z,1.30
2023-04-06T01:19:04.725Z,1.30
2023-04-06T01:20:02.603Z,1.30
2023-04-06T01:21:02.657Z,1.30
2023-04-06T01:22:02.633Z,1.30
2023-04-06T01:23:02.630Z,1.30
2023-04-06T01:24:02.777Z,1.30
2023-04-06T01:25:02.665Z,1.30
2023-04-06T01:26:02.761Z,1.30
2023-04-06T01:27:02.938Z,1.30
2023-04-06T01:28:02.920Z,1.30
2023-04-06T01:29:02.935Z,1.30
2023-04-06T01:30:04.544Z,1.30
2023-04-06T01:31:04.522Z,1.30
2023-04-06T01:32:04.529Z,1.30
2023-04-06T01:33:04.569Z,1.30
2023-04-06T01:34:04.564Z,1.30
2023-04-06T01:35:04.755Z,1.30
2023-04-06T01:36:04.616Z,1.30
2023-04-06T01:37:04.708Z,1.30
2023-04-06T01:38:04.763Z,1.30
2023-04-06T01:39:04.695Z,1.30
2023-04-06T01:40:04.729Z,1.30
2023-04-06T01:41:04.745Z,1.30
2023-04-06T01:42:04.729Z,1.30
2023-04-06T01:43:04.729Z,1.30
2023-04-06T01:44:04.727Z,1.30
2023-04-06T01:45:04.744Z,1.20
2023-04-06T01:46:04.726Z,1.30
2023-04-06T01:47:04.739Z,1.20
2023-04-06T01:48:04.878Z,1.20
2023-04-06T01:49:02.621Z,1.20
2023-04-06T01:50:02.658Z,1.20
2023-04-06T01:51:02.687Z,1.20
2023-04-06T01:52:02.741Z,1.20
2023-04-06T01:53:02.728Z,1.20
2023-04-06T01:54:02.742Z,1.20
2023-04-06T01:55:02.717Z,1.20
2023-04-06T01:56:02.830Z,1.20
2023-04-06T01:57:02.824Z,1.20
2023-04-06T01:58:02.786Z,1.20
2023-04-06T01:59:02.842Z,1.20
2023-04-06T02:00:02.821Z,1.20
2023-04-06T02:01:02.795Z,1.20
2023-04-06T02:02:02.903Z,1.20
2023-04-06T02:03:02.965Z,1.20
2023-04-06T02:04:02.901Z,1.20
2023-04-06T02:05:02.938Z,1.20
2023-04-06T02:06:02.925Z,1.20
2023-04-06T02:07:02.924Z,1.20
2023-04-06T02:08:02.933Z,1.20
2023-04-06T02:09:02.921Z,1.20
2023-04-06T02:10:02.954Z,1.20
2023-04-06T02:11:02.988Z,1.20
2023-04-06T02:12:04.623Z,1.20
2023-04-06T02:13:04.619Z,1.20
2023-04-06T02:14:04.613Z,1.20
2023-04-06T02:15:04.608Z,1.10
2023-04-06T02:16:04.626Z,1.10
2023-04-06T02:17:04.824Z,1.10
2023-04-06T02:18:04.836Z,1.10
2023-04-06T02:19:04.751Z,1.10
2023-04-06T02:20:04.802Z,1.10
2023-04-06T02:21:04.783Z,1.10
2023-04-06T02:22:04.784Z,1.10
2023-04-06T02:23:04.796Z,1.10
2023-04-06T02:24:04.758Z,1.00
2023-04-06T02:25:04.761Z,1.00
2023-04-06T02:26:02.690Z,1.00
2023-04-06T02:27:02.817Z,1.00
2023-04-06T02:28:02.806Z,1.00
2023-04-06T02:29:02.745Z,1.00
2023-04-06T02:30:02.896Z,1.00
2023-04-06T02:31:02.986Z,1.00
2023-04-06T02:32:04.646Z,0.90
2023-04-06T02:33:04.607Z,0.90
2023-04-06T02:34:04.628Z,0.90
2023-04-06T02:35:04.627Z,0.90
2023-04-06T02:36:04.668Z,0.90
2023-04-06T02:37:04.638Z,0.90
2023-04-06T02:38:04.634Z,0.80
2023-04-06T02:39:04.779Z,0.80
2023-04-06T02:40:04.918Z,0.80
2023-04-06T02:41:04.777Z,0.80
2023-04-06T02:42:04.781Z,0.70
2023-04-06T02:43:02.623Z,0.80
2023-04-06T02:44:02.743Z,0.70
2023-04-06T02:45:02.868Z,0.70
2023-04-06T02:46:02.941Z,0.70
2023-04-06T02:47:02.942Z,0.70
2023-04-06T02:48:03.034Z,0.70
2023-04-06T02:49:04.545Z,0.70
2023-04-06T02:50:04.546Z,0.70
2023-04-06T02:51:04.568Z,0.60
2023-04-06T02:52:04.577Z,0.60
2023-04-06T02:53:04.597Z,0.60
2023-04-06T02:54:04.598Z,0.60
2023-04-06T02:55:04.648Z,0.60
2023-04-06T02:56:04.670Z,0.60
2023-04-06T02:57:04.659Z,0.60
2023-04-06T02:58:04.842Z,0.50
2023-04-06T02:59:04.824Z,0.50
2023-04-06T03:00:04.824Z,0.50
2023-04-06T03:01:04.822Z,0.50
2023-04-06T03:02:04.795Z,0.50
2023-04-06T03:03:04.864Z,0.50
2023-04-06T03:04:04.840Z,0.50
2023-04-06T03:05:04.819Z,0.50
2023-04-06T03:06:04.847Z,0.50
2023-04-06T03:07:04.799Z,0.40
2023-04-06T03:08:04.874Z,0.40
2023-04-06T03:09:04.842Z,0.50
2023-04-06T03:10:04.807Z,0.40
2023-04-06T03:11:04.811Z,0.50
2023-04-06T03:12:04.830Z,0.40
2023-04-06T03:13:04.790Z,0.40
2023-04-06T03:14:04.816Z,0.40
2023-04-06T03:15:04.806Z,0.40
2023-04-06T03:16:02.716Z,0.40
2023-04-06T03:17:02.702Z,0.40
2023-04-06T03:18:02.837Z,0.40
2023-04-06T03:19:02.837Z,0.30
2023-04-06T03:20:02.817Z,0.30
2023-04-06T03:21:02.828Z,0.30
2023-04-06T03:22:02.959Z,0.30
2023-04-06T03:23:04.813Z,0.30
2023-04-06T03:24:02.682Z,0.30
2023-04-06T03:25:04.842Z,0.30
2023-04-06T03:26:04.827Z,0.30
2023-04-06T03:27:04.873Z,0.20
2023-04-06T03:28:04.671Z,0.20
2023-04-06T03:29:04.674Z,0.20
2023-04-06T03:30:04.846Z,0.20
2023-04-06T03:31:04.856Z,0.20
2023-04-06T03:32:04.844Z,0.20
2023-04-06T03:33:04.825Z,0.20
2023-04-06T03:34:04.822Z,0.10
2023-04-06T03:35:04.862Z,0.10
2023-04-06T03:36:04.871Z,0.10
2023-04-06T03:37:10.113Z,0.10
2023-04-06T03:38:02.684Z,0.10
2023-04-06T03:39:02.833Z,0.10
2023-04-06T03:40:02.873Z,0.10
2023-04-06T03:41:02.832Z,0.10
2023-04-06T03:42:02.891Z,0.10
2023-04-06T03:43:02.877Z,0.00
2023-04-06T03:44:03.044Z,0.00
2023-04-06T03:45:02.930Z,0.00
2023-04-06T03:46:03.075Z,0.00
2023-04-06T03:47:04.653Z,0.00
2023-04-06T03:48:04.717Z,0.00
2023-04-06T03:49:04.701Z,0.00
2023-04-06T03:50:04.682Z,0.00
2023-04-06T03:51:04.688Z,-0.10
2023-04-06T03:52:04.588Z,-0.10
2023-04-06T03:53:04.850Z,-0.10
2023-04-06T03:54:04.690Z,-0.10
2023-04-06T03:55:04.890Z,-0.10
2023-04-06T03:56:05.112Z,-0.10
2023-04-06T03:57:04.693Z,-0.10
2023-04-06T03:58:04.692Z,-0.10
2023-04-06T03:59:04.732Z,-0.10
2023-04-06T04:00:04.699Z,-0.20
2023-04-06T04:01:04.699Z,-0.20
2023-04-06T04:02:04.889Z,-0.20
2023-04-06T04:03:04.893Z,-0.20
2023-04-06T04:04:04.871Z,-0.20
2023-04-06T04:05:04.900Z,-0.20
2023-04-06T04:06:04.842Z,-0.20
2023-04-06T04:07:04.853Z,-0.20
2023-04-06T04:08:04.845Z,-0.20
2023-04-06T04:09:04.870Z,-0.20
2023-04-06T04:10:04.859Z,-0.30
2023-04-06T04:11:02.773Z,-0.30
2023-04-06T04:12:02.861Z,-0.30
2023-04-06T04:13:02.841Z,-0.30
2023-04-06T04:14:02.899Z,-0.30
2023-04-06T04:15:04.710Z,-0.30
2023-04-06T04:16:04.891Z,-0.30
2023-04-06T04:17:04.864Z,-0.40
2023-04-06T04:18:04.889Z,-0.30
2023-04-06T04:19:04.879Z,-0.40
2023-04-06T04:20:04.887Z,-0.40
2023-04-06T04:21:04.855Z,-0.40
2023-04-06T04:22:02.776Z,-0.40
2023-04-06T04:23:02.818Z,-0.40
2023-04-06T04:24:02.769Z,-0.40
2023-04-06T04:25:04.634Z,-0.40
2023-04-06T04:26:04.712Z,-0.40
2023-04-06T04:27:04.903Z,-0.40
2023-04-06T04:28:04.725Z,-0.40
2023-04-06T04:29:04.913Z,-0.40
2023-04-06T04:30:04.879Z,-0.40
2023-04-06T04:31:04.908Z,-0.40
2023-04-06T04:32:04.895Z,-0.40
2023-04-06T04:33:04.913Z,-0.40
2023-04-06T04:34:04.838Z,-0.40
2023-04-06T04:35:02.928Z,-0.40
2023-04-06T04:36:02.973Z,-0.40
2023-04-06T04:37:02.692Z,-0.40
2023-04-06T04:38:02.754Z,-0.40
2023-04-06T04:39:02.696Z,-0.40
2023-04-06T04:40:02.729Z,-0.40
2023-04-06T04:41:02.683Z,-0.40
2023-04-06T04:42:02.684Z,-0.40
2023-04-06T04:43:02.817Z,-0.40
2023-04-06T04:44:02.857Z,-0.40
2023-04-06T04:45:02.862Z,-0.40
2023-04-06T04:46:02.814Z,-0.50
2023-04-06T04:47:03.029Z,-0.50
2023-04-06T04:48:03.007Z,-0.50
2023-04-06T04:49:02.966Z,-0.40
2023-04-06T04:50:03.033Z,-0.50
2023-04-06T04:51:03.092Z,-0.50
2023-04-06T04:52:03.100Z,-0.50
2023-04-06T04:53:04.755Z,-0.50
2023-04-06T04:54:04.764Z,-0.50
2023-04-06T04:55:04.748Z,-0.50
2023-04-06T04:56:04.731Z,-0.50
2023-04-06T04:57:04.723Z,-0.50
2023-04-06T04:58:04.672Z,-0.50
2023-04-06T04:59:04.921Z,-0.50
2023-04-06T05:00:08.626Z,-0.50
2023-04-06T05:01:04.872Z,-0.50
2023-04-06T05:04:05.130Z,-0.50
2023-04-06T05:05:02.684Z,-0.50
2023-04-06T05:06:02.780Z,-0.50
2023-04-06T05:07:02.757Z,-0.50
2023-04-06T05:08:02.820Z,-0.50
2023-04-06T05:09:02.847Z,-0.40
2023-04-06T05:10:02.935Z,-0.40
2023-04-06T05:11:02.844Z,-0.40
2023-04-06T05:12:02.985Z,-0.30
2023-04-06T05:13:02.906Z,-0.30
2023-04-06T05:14:02.990Z,-0.20
2023-04-06T05:15:02.918Z,-0.20
2023-04-06T05:16:03.074Z,-0.10
2023-04-06T05:17:04.708Z,-0.10
2023-04-06T05:18:04.718Z,0.00
2023-04-06T05:19:04.797Z,0.10
2023-04-06T05:20:04.930Z,0.10
2023-04-06T05:21:04.953Z,0.20
2023-04-06T05:22:13.567Z,0.30
2023-04-06T05:23:13.602Z,0.40
2023-04-06T05:25:02.644Z,0.60
2023-04-06T05:26:02.880Z,0.60
2023-04-06T05:27:02.825Z,0.70
2023-04-06T05:28:02.854Z,0.80
2023-04-06T05:29:02.830Z,0.90
2023-04-06T05:30:02.853Z,1.00
2023-04-06T05:31:02.850Z,1.10
2023-04-06T05:32:02.856Z,1.30
2023-04-06T05:33:02.891Z,1.40
2023-04-06T05:34:04.785Z,1.60
2023-04-06T05:35:04.816Z,1.80
2023-04-06T05:36:05.038Z,1.90
2023-04-06T05:37:04.976Z,2.10
2023-04-06T05:38:04.975Z,2.30
2023-04-06T05:39:04.995Z,2.40
2023-04-06T05:40:04.960Z,2.60
2023-04-06T05:41:02.712Z,2.80
2023-04-06T05:42:02.814Z,2.90
2023-04-06T05:43:03.055Z,3.10
2023-04-06T05:44:03.117Z,3.30
2023-04-06T05:45:04.763Z,3.50
2023-04-06T05:46:03.112Z,3.60
2023-04-06T05:47:03.271Z,3.80
2023-04-06T05:48:03.170Z,3.90
2023-04-06T05:49:04.221Z,4.00
2023-04-06T05:50:03.142Z,4.20
2023-04-06T05:51:04.724Z,4.40
2023-04-06T05:52:03.223Z,4.50
2023-04-06T05:53:03.205Z,4.70
2023-04-06T05:54:03.179Z,4.80
2023-04-06T05:55:04.784Z,5.00
2023-04-06T05:56:02.879Z,5.10
2023-04-06T05:57:03.022Z,5.20
2023-04-06T05:58:02.947Z,5.40
2023-04-06T05:59:02.953Z,5.50
2023-04-06T06:00:03.097Z,5.60
2023-04-06T06:01:03.113Z,5.70
2023-04-06T06:02:02.755Z,5.80
2023-04-06T06:03:05.007Z,5.90
2023-04-06T06:04:02.652Z,6.10
2023-04-06T06:05:02.740Z,6.20
2023-04-06T06:06:03.585Z,6.30
2023-04-06T06:07:02.933Z,6.40
2023-04-06T06:08:02.901Z,6.50
2023-04-06T06:09:03.046Z,6.60
2023-04-06T06:10:03.133Z,6.70
2023-04-06T06:11:03.158Z,6.80
2023-04-06T06:12:03.224Z,6.90
2023-04-06T06:13:04.876Z,7.00
2023-04-06T06:14:04.835Z,7.10
2023-04-06T06:15:04.997Z,7.10
2023-04-06T06:16:05.007Z,7.20
2023-04-06T06:17:05.009Z,7.30
2023-04-06T06:18:05.013Z,7.40
2023-04-06T06:19:02.704Z,7.50
2023-04-06T06:20:02.808Z,7.60
2023-04-06T06:21:02.903Z,7.70
2023-04-06T06:22:03.123Z,7.80
2023-04-06T06:23:02.912Z,7.80
2023-04-06T06:24:03.026Z,7.90
2023-04-06T06:25:03.043Z,8.00
2023-04-06T06:26:03.204Z,8.10
2023-04-06T06:27:03.193Z,8.20
2023-04-06T06:28:04.760Z,8.20
2023-04-06T06:29:04.765Z,8.30
2023-04-06T06:30:05.088Z,8.40
2023-04-06T06:31:04.880Z,8.50
2023-04-06T06:32:04.891Z,8.50
2023-04-06T06:33:05.074Z,8.60
2023-04-06T06:34:05.013Z,8.70
2023-04-06T06:35:05.065Z,8.70
2023-04-06T06:36:02.790Z,8.80
2023-04-06T06:37:02.716Z,8.90
2023-04-06T06:38:02.650Z,8.90
2023-04-06T06:39:02.837Z,9.00
2023-04-06T06:40:02.735Z,9.10
2023-04-06T06:41:02.844Z,9.10
2023-04-06T06:42:02.917Z,9.20
2023-04-06T06:43:03.027Z,9.20
2023-04-06T06:44:02.979Z,9.30
2023-04-06T06:45:03.173Z,9.40
2023-04-06T06:46:03.219Z,9.40
2023-04-06T06:47:03.244Z,9.40
2023-04-06T06:48:03.162Z,9.50
2023-04-06T06:49:03.096Z,9.50
2023-04-06T06:50:03.273Z,9.60
2023-04-06T06:51:04.836Z,9.60
2023-04-06T06:52:04.847Z,9.70
2023-04-06T06:53:05.039Z,9.70
2023-04-06T06:54:04.883Z,9.70
2023-04-06T06:55:04.915Z,9.80
2023-04-06T06:56:04.871Z,9.80
2023-04-06T06:57:05.099Z,9.80
2023-04-06T06:58:04.881Z,9.90
2023-04-06T06:59:05.045Z,9.90
2023-04-06T07:00:05.145Z,9.90
2023-04-06T07:01:05.069Z,9.90
2023-04-06T07:02:05.080Z,9.90
2023-04-06T07:03:05.090Z,9.90
2023-04-06T07:04:05.074Z,9.90
2023-04-06T07:05:13.202Z,10.00
2023-04-06T07:06:02.788Z,10.00
2023-04-06T07:07:02.857Z,10.00
2023-04-06T07:08:03.055Z,10.00
2023-04-06T07:09:03.323Z,10.10
2023-04-06T07:10:03.273Z,10.10
2023-04-06T07:11:04.842Z,10.10
2023-04-06T07:12:04.929Z,10.20
2023-04-06T07:13:05.067Z,10.20
2023-04-06T07:14:05.072Z,10.20
2023-04-06T07:15:05.116Z,10.20
2023-04-06T07:16:05.086Z,10.20
2023-04-06T07:17:05.065Z,10.10
2023-04-06T07:18:05.072Z,10.10
2023-04-06T07:19:02.701Z,10.10
2023-04-06T07:20:02.696Z,10.10
2023-04-06T07:21:02.714Z,10.20
2023-04-06T07:22:02.742Z,10.20
2023-04-06T07:23:02.858Z,10.20
2023-04-06T07:24:02.945Z,10.30
2023-04-06T07:25:02.904Z,10.30
2023-04-06T07:26:03.010Z,10.30
2023-04-06T07:27:03.015Z,10.40
2023-04-06T07:28:03.038Z,10.40
2023-04-06T07:29:03.168Z,10.40
2023-04-06T07:30:03.117Z,10.40
2023-04-06T07:31:03.101Z,10.50
2023-04-06T07:32:03.165Z,10.50
2023-04-06T07:33:03.320Z,10.60
2023-04-06T07:34:03.215Z,10.60
2023-04-06T07:35:03.281Z,10.60
2023-04-06T07:36:03.327Z,10.70
2023-04-06T07:37:04.027Z,10.70
2023-04-06T07:38:03.204Z,10.70
2023-04-06T07:39:03.094Z,10.80
2023-04-06T07:40:03.070Z,10.80
2023-04-06T07:41:03.194Z,10.80
2023-04-06T07:42:04.846Z,10.90
2023-04-06T07:43:04.843Z,10.90
2023-04-06T07:44:04.907Z,10.90
2023-04-06T07:45:04.897Z,10.90
2023-04-06T07:46:04.965Z,11.00
2023-04-06T07:47:05.127Z,11.00
2023-04-06T07:48:05.123Z,11.00
2023-04-06T07:49:02.685Z,11.00
2023-04-06T07:50:02.885Z,11.10
2023-04-06T07:51:02.809Z,11.10
2023-04-06T07:52:02.768Z,11.10
2023-04-06T07:53:02.774Z,11.10
2023-04-06T07:54:02.842Z,11.20
2023-04-06T07:55:02.781Z,11.20
2023-04-06T07:56:02.811Z,11.20
2023-04-06T07:57:02.851Z,11.20
2023-04-06T07:58:02.957Z,11.30
2023-04-06T07:59:02.964Z,11.30
2023-04-06T08:00:02.995Z,11.30
2023-04-06T08:01:03.059Z,11.30
2023-04-06T08:02:03.180Z,11.40
2023-04-06T08:03:03.270Z,11.40
2023-04-06T08:04:02.998Z,11.40
2023-04-06T08:05:02.999Z,11.50
2023-04-06T08:06:03.133Z,11.50
2023-04-06T08:07:03.101Z,11.50
2023-04-06T08:08:03.114Z,11.50
2023-04-06T08:09:03.108Z,11.60
2023-04-06T08:10:03.103Z,11.60
2023-04-06T08:11:03.059Z,11.60
2023-04-06T08:12:03.127Z,11.70
2023-04-06T08:13:03.285Z,11.70
2023-04-06T08:14:04.859Z,11.70
2023-04-06T08:15:03.312Z,11.80
2023-04-06T08:16:04.874Z,11.80
2023-04-06T08:17:06.314Z,11.70
2023-04-06T08:18:05.113Z,11.70
2023-04-06T08:19:05.168Z,11.70
2023-04-06T08:20:02.700Z,11.70
2023-04-06T08:21:02.652Z,11.80
2023-04-06T08:22:02.759Z,11.80
2023-04-06T08:23:02.764Z,11.80
2023-04-06T08:24:02.802Z,11.80
2023-04-06T08:25:02.831Z,11.70
2023-04-06T08:26:02.770Z,11.80
2023-04-06T08:27:02.784Z,11.70
2023-04-06T08:28:02.805Z,11.70
2023-04-06T08:29:02.941Z,11.70
2023-04-06T08:30:03.032Z,11.70
2023-04-06T08:31:03.070Z,11.70
2023-04-06T08:32:03.039Z,11.80
2023-04-06T08:33:03.078Z,11.80
2023-04-06T08:34:03.047Z,11.80
2023-04-06T08:35:03.030Z,11.80
2023-04-06T08:36:02.949Z,11.80
2023-04-06T08:37:03.063Z,11.80
2023-04-06T08:38:03.172Z,11.80
2023-04-06T08:39:03.316Z,11.80
2023-04-06T08:40:03.262Z,11.80
2023-04-06T08:41:03.342Z,11.80
2023-04-06T08:42:03.311Z,11.80
2023-04-06T08:43:03.394Z,11.80
2023-04-06T08:44:04.999Z,11.80
2023-04-06T08:45:04.997Z,11.80
2023-04-06T08:46:02.706Z,11.80
2023-04-06T08:47:02.668Z,11.80
2023-04-06T08:48:02.686Z,11.90
2023-04-06T08:49:02.719Z,11.90
2023-04-06T08:50:02.860Z,11.90
2023-04-06T08:51:02.954Z,11.90
2023-04-06T08:52:02.983Z,11.90
2023-04-06T08:53:03.028Z,11.90
2023-04-06T08:54:03.011Z,11.90
2023-04-06T08:55:02.955Z,11.90
2023-04-06T08:56:03.048Z,11.90
2023-04-06T08:57:03.080Z,11.90
2023-04-06T08:58:03.099Z,11.90
2023-04-06T08:59:03.211Z,11.90
2023-04-06T09:00:03.115Z,11.80
2023-04-06T09:01:03.240Z,11.80
2023-04-06T09:02:03.430Z,11.90
2023-04-06T09:03:05.041Z,11.90
2023-04-06T09:04:06.622Z,11.90
2023-04-06T09:05:05.191Z,11.90
2023-04-06T09:06:02.679Z,11.80
2023-04-06T09:07:02.770Z,11.80
2023-04-06T09:08:02.760Z,11.80
2023-04-06T09:09:02.746Z,11.80
2023-04-06T09:10:02.861Z,11.80
2023-04-06T09:11:02.954Z,11.90
2023-04-06T09:12:03.069Z,11.80
2023-04-06T09:13:03.151Z,11.80
2023-04-06T09:14:03.127Z,11.90
2023-04-06T09:15:03.161Z,11.90
2023-04-06T09:16:03.173Z,11.90
2023-04-06T09:17:03.255Z,11.90
2023-04-06T09:18:02.698Z,11.90
2023-04-06T09:19:02.815Z,12.00
2023-04-06T09:20:02.942Z,12.00
2023-04-06T09:21:03.076Z,11.90
2023-04-06T09:22:02.983Z,11.90
2023-04-06T09:23:03.275Z,11.90
2023-04-06T09:24:03.390Z,11.90
2023-04-06T09:25:05.006Z,11.90
2023-04-06T09:26:03.369Z,11.90
2023-04-06T09:27:03.352Z,11.90
2023-04-06T09:28:03.383Z,11.90
2023-04-06T09:29:05.037Z,11.90
2023-04-06T09:30:05.036Z,12.00
2023-04-06T09:31:02.716Z,12.00
2023-04-06T09:32:02.777Z,12.00
2023-04-06T09:33:02.801Z,12.10
2023-04-06T09:34:02.826Z,12.10
2023-04-06T09:35:03.244Z,12.10
2023-04-06T09:36:03.227Z,12.10
2023-04-06T09:37:03.328Z,12.10
2023-04-06T09:38:03.325Z,12.10
2023-04-06T09:39:05.050Z,12.10
2023-04-06T09:40:04.999Z,12.20
2023-04-06T09:41:05.018Z,12.10
2023-04-06T09:42:02.825Z,12.10
2023-04-06T09:43:02.769Z,12.10
2023-04-06T09:44:02.897Z,12.10
2023-04-06T09:45:02.879Z,12.10
2023-04-06T09:46:02.841Z,12.00
2023-04-06T09:47:02.864Z,12.10
2023-04-06T09:48:02.974Z,12.10
2023-04-06T09:49:02.854Z,12.10
2023-04-06T09:50:02.953Z,12.10
2023-04-06T09:51:03.029Z,12.10
2023-04-06T09:52:03.058Z,12.00
2023-04-06T09:53:03.050Z,12.00
2023-04-06T09:54:03.045Z,12.00
2023-04-06T09:55:03.119Z,12.00
2023-04-06T09:56:03.038Z,12.00
2023-04-06T09:57:03.046Z,12.00
2023-04-06T09:58:03.177Z,12.00
2023-04-06T09:59:03.236Z,12.00
2023-04-06T10:00:03.163Z,12.10
2023-04-06T10:01:03.246Z,12.10
2023-04-06T10:02:03.369Z,12.10
2023-04-06T10:03:03.410Z,12.10
2023-04-06T10:04:03.520Z,12.10
2023-04-06T10:05:05.071Z,12.10
2023-04-06T10:06:04.959Z,12.00
2023-04-06T10:07:05.085Z,12.00
2023-04-06T10:08:02.741Z,11.90
2023-04-06T10:09:02.644Z,11.90
2023-04-06T10:10:02.618Z,11.90
2023-04-06T10:11:02.645Z,11.90
2023-04-06T10:12:02.773Z,11.80
2023-04-06T10:13:02.738Z,11.90
2023-04-06T10:14:02.850Z,11.90
2023-04-06T10:15:02.984Z,11.90
2023-04-06T10:16:03.055Z,11.90
2023-04-06T10:17:03.100Z,11.90
2023-04-06T10:18:03.198Z,11.90
2023-04-06T10:19:03.136Z,11.90
2023-04-06T10:20:03.178Z,11.90
2023-04-06T10:21:03.058Z,11.90
2023-04-06T10:22:03.087Z,12.00
2023-04-06T10:23:03.153Z,12.00
2023-04-06T10:24:03.169Z,12.10
2023-04-06T10:25:03.124Z,12.10
2023-04-06T10:26:03.134Z,12.10
2023-04-06T10:27:03.129Z,12.10
2023-04-06T10:28:03.242Z,12.20
2023-04-06T10:29:03.285Z,12.20
2023-04-06T10:30:03.467Z,12.20
2023-04-06T10:31:03.377Z,12.30
2023-04-06T10:32:03.315Z,12.30
2023-04-06T10:33:03.352Z,12.30
2023-04-06T10:34:03.286Z,12.30
2023-04-06T10:35:03.452Z,12.40
2023-04-06T10:36:05.050Z,12.30
2023-04-06T10:37:04.998Z,12.30
2023-04-06T10:38:02.745Z,12.30
2023-04-06T10:39:02.815Z,12.20
2023-04-06T10:40:02.867Z,12.20
2023-04-06T10:41:02.817Z,12.20
2023-04-06T10:42:02.798Z,12.20
2023-04-06T10:43:02.932Z,12.20
2023-04-06T10:44:02.903Z,12.20
2023-04-06T10:45:03.045Z,12.20
2023-04-06T10:46:03.162Z,12.20
2023-04-06T10:47:03.080Z,12.20
2023-04-06T10:48:03.190Z,12.30
2023-04-06T10:49:03.054Z,12.30
2023-04-06T10:50:03.143Z,12.30
2023-04-06T10:51:03.235Z,12.40
2023-04-06T10:52:03.292Z,12.40
2023-04-06T10:53:03.365Z,12.40
2023-04-06T10:54:03.363Z,12.30
2023-04-06T10:55:05.074Z,12.30
2023-04-06T10:56:05.144Z,12.30
2023-04-06T10:57:05.145Z,12.30
2023-04-06T10:58:02.695Z,12.30
2023-04-06T10:59:02.780Z,12.30
2023-04-06T11:00:02.781Z,12.30
2023-04-06T11:01:02.778Z,12.40
2023-04-06T11:02:02.850Z,12.40
2023-04-06T11:03:02.874Z,12.40
2023-04-06T11:04:02.959Z,12.40
2023-04-06T11:05:03.037Z,12.40
2023-04-06T11:06:03.135Z,12.40
2023-04-06T11:07:03.074Z,12.40
2023-04-06T11:08:03.036Z,12.40
2023-04-06T11:09:02.953Z,12.40
2023-04-06T11:10:13.063Z,12.50
2023-04-06T11:11:03.051Z,12.50
2023-04-06T11:12:03.254Z,12.50
2023-04-06T11:13:03.269Z,12.60
2023-04-06T11:14:03.384Z,12.60
2023-04-06T11:15:03.389Z,12.60
2023-04-06T11:16:03.333Z,12.60
2023-04-06T11:17:03.154Z,12.60
2023-04-06T11:18:03.072Z,12.60
2023-04-06T11:19:03.171Z,12.70
2023-04-06T11:20:03.423Z,12.70
2023-04-06T11:21:03.526Z,12.70
2023-04-06T11:22:03.525Z,12.70
2023-04-06T11:23:02.663Z,12.70
2023-04-06T11:24:02.768Z,12.70
2023-04-06T11:25:02.776Z,12.80
2023-04-06T11:26:02.925Z,12.80
2023-04-06T11:27:02.948Z,12.80
2023-04-06T11:28:03.105Z,12.80
2023-04-06T11:29:03.250Z,12.80
2023-04-06T11:30:03.342Z,12.80
2023-04-06T11:31:03.364Z,12.80
2023-04-06T11:32:03.513Z,12.80
2023-04-06T11:33:03.592Z,12.90
2023-04-06T11:34:05.298Z,12.80
2023-04-06T11:35:02.752Z,12.90
2023-04-06T11:36:02.783Z,12.90
2023-04-06T11:37:02.760Z,12.90
2023-04-06T11:38:02.736Z,12.80
2023-04-06T11:39:02.904Z,12.80
2023-04-06T11:40:03.019Z,12.80
2023-04-06T11:41:03.056Z,12.80
2023-04-06T11:42:03.154Z,12.80
2023-04-06T11:43:03.164Z,12.80
2023-04-06T11:44:03.127Z,12.80
2023-04-06T11:45:03.297Z,12.90
2023-04-06T11:46:03.358Z,12.80
2023-04-06T11:47:03.451Z,12.80
2023-04-06T11:48:03.337Z,12.80
2023-04-06T11:49:03.506Z,12.70
2023-04-06T11:50:03.516Z,12.80
2023-04-06T11:51:03.516Z,12.80
2023-04-06T11:52:03.500Z,12.80
2023-04-06T11:53:05.086Z,12.70
2023-04-06T11:54:03.566Z,12.70
2023-04-06T11:55:05.085Z,12.70
2023-04-06T11:56:05.144Z,12.70
2023-04-06T11:57:02.710Z,12.70
2023-04-06T11:58:02.763Z,12.70
2023-04-06T11:59:02.771Z,12.70
2023-04-06T12:00:02.906Z,12.70
2023-04-06T12:01:02.921Z,12.80
2023-04-06T12:02:03.028Z,12.80
2023-04-06T12:03:03.156Z,12.80
2023-04-06T12:04:03.297Z,12.90
2023-04-06T12:05:03.082Z,12.90
2023-04-06T12:06:03.211Z,12.90
2023-04-06T12:07:03.293Z,13.00
2023-04-06T12:08:03.675Z,13.00
2023-04-06T12:09:03.517Z,13.00
2023-04-06T12:10:05.143Z,13.00
2023-04-06T12:11:03.532Z,13.00
2023-04-06T12:12:05.123Z,13.00
2023-04-06T12:13:03.598Z,13.00
2023-04-06T12:14:05.145Z,13.00
2023-04-06T12:15:02.694Z,13.00
2023-04-06T12:16:02.876Z,13.00
2023-04-06T12:17:02.857Z,13.00
2023-04-06T12:18:03.038Z,13.00
2023-04-06T12:19:02.979Z,13.00
2023-04-06T12:20:05.972Z,13.00
2023-04-06T12:21:03.314Z,13.00
2023-04-06T12:22:03.329Z,13.00
2023-04-06T12:23:03.394Z,13.10
2023-04-06T12:24:03.544Z,13.10
2023-04-06T12:25:02.669Z,13.00
2023-04-06T12:26:02.765Z,13.10
2023-04-06T12:27:09.764Z,13.10
2023-04-06T12:28:02.833Z,13.10
2023-04-06T12:29:02.870Z,13.10
2023-04-06T12:30:02.905Z,13.20
2023-04-06T12:31:03.009Z,13.20
2023-04-06T12:32:03.146Z,13.20
2023-04-06T12:33:03.184Z,13.20
2023-04-06T12:34:03.126Z,13.30
2023-04-06T12:35:03.127Z,13.30
2023-04-06T12:36:03.198Z,13.30
2023-04-06T12:37:03.227Z,13.30
2023-04-06T12:38:03.284Z,13.30
2023-04-06T12:39:03.196Z,13.30
2023-04-06T12:40:03.216Z,13.40
2023-04-06T12:41:03.379Z,13.40
2023-04-06T12:42:03.375Z,13.40
2023-04-06T12:43:03.501Z,13.40
2023-04-06T12:44:03.495Z,13.40
2023-04-06T12:45:03.566Z,13.40
2023-04-06T12:46:02.672Z,13.40
2023-04-06T12:47:02.867Z,13.40
2023-04-06T12:48:02.930Z,13.40
2023-04-06T12:49:02.998Z,13.40
2023-04-06T12:50:03.080Z,13.30
2023-04-06T12:51:03.023Z,13.30
2023-04-06T12:52:02.759Z,13.30
2023-04-06T12:53:02.767Z,13.30
2023-04-06T12:54:02.749Z,13.30
2023-04-06T12:55:02.972Z,13.30
2023-04-06T12:56:03.024Z,13.30
2023-04-06T12:57:03.234Z,13.30
2023-04-06T12:58:03.238Z,13.20
2023-04-06T12:59:03.327Z,13.20
2023-04-06T13:00:03.687Z,13.20
2023-04-06T13:01:03.460Z,13.10
2023-04-06T13:02:03.430Z,13.10
2023-04-06T13:03:03.489Z,13.10
2023-04-06T13:04:03.462Z,13.10
2023-04-06T13:05:03.493Z,13.00
2023-04-06T13:06:03.551Z,13.00